createdAt,value
2016-01-15T19:43:44.047Z,84.47
2016-01-15T19:44:44.098Z,83.41
2016-01-15T19:45:44.122Z,82.89
2016-01-15T19:46:44.062Z,82.9
2016-01-15T19:47:43.987Z,83.15
2016-01-15T19:48:44.083Z,84.5
2016-01-15T19:49:43.961Z,84.99
2016-01-15T19:50:44.011Z,85.42
2016-01-15T19:51:43.857Z,85.96
2016-01-15T19:52:43.875Z,86.63
2016-01-15T19:53:43.828Z,87.26
2016-01-15T19:54:43.784Z,88.21
2016-01-15T19:55:43.772Z,88.79
2016-01-15T19:56:43.572Z,89.17
2016-01-15T19:57:43.699Z,89.13
2016-01-15T19:58:43.702Z,89.56
2016-01-15T19:59:43.658Z,90.13
2016-01-15T20:00:43.613Z,90.28
2016-01-15T20:01:43.600Z,90.37
2016-01-15T20:02:43.556Z,90.37
2016-01-15T20:03:43.497Z,90.61
2016-01-15T20:04:43.500Z,90.61
2016-01-15T20:05:43.299Z,90.66
2016-01-15T20:06:43.350Z,90.94
2016-01-15T20:07:43.398Z,90.94
2016-01-15T20:08:43.355Z,90.85
2016-01-15T20:09:44.061Z,90.8
2016-01-15T20:10:44.204Z,90.8
2016-01-15T20:11:43.271Z,90.9
2016-01-15T20:12:43.273Z,90.52
2016-01-15T20:13:43.198Z,90.66
2016-01-15T20:14:43.154Z,90.38
2016-01-15T20:15:43.127Z,90.47
2016-01-15T20:16:43.048Z,90.57
2016-01-15T20:17:43.005Z,90
2016-01-15T20:18:42.992Z,90.19
2016-01-15T20:19:43.026Z,89.95
2016-01-15T20:20:42.934Z,89.95
2016-01-15T20:21:42.906Z,89.86
2016-01-15T20:22:42.878Z,89.76
2016-01-15T20:23:42.802Z,89.86
2016-01-15T20:24:42.820Z,89.39
2016-01-15T20:40:28.787Z,86.78
2016-01-15T20:41:28.727Z,86.87
2016-01-15T20:42:28.729Z,86.68
2016-01-15T20:43:28.670Z,86.59
2016-01-15T20:44:28.658Z,86.68
2016-01-15T20:45:28.597Z,86.11
2016-01-15T20:46:28.553Z,86.02
2016-01-15T20:47:28.588Z,85.74
2016-01-15T20:48:28.494Z,85.83
2016-01-15T20:49:28.450Z,85.83
2016-01-15T20:50:28.483Z,86.02
2016-01-15T20:51:28.361Z,85.55
2016-01-15T20:52:28.270Z,85.17
2016-01-15T20:53:28.304Z,85.93
2016-01-15T20:54:28.322Z,85.55
2016-01-15T20:55:28.200Z,85.55
2016-01-15T20:56:28.219Z,85.55
2016-01-15T20:57:28.238Z,85.36
2016-01-15T20:58:28.146Z,85.36
2016-01-15T20:59:28.101Z,85.41
2016-01-15T21:00:28.105Z,85.36
2016-01-15T21:01:28.030Z,84.88
2016-01-15T21:02:27.938Z,85.03
2016-01-15T21:03:27.957Z,85.13
2016-01-15T21:04:27.944Z,84.94
2016-01-15T21:05:28.010Z,84.74
2016-01-15T21:06:27.855Z,84.55
2016-01-15T21:07:27.843Z,84.17
2016-01-15T21:08:27.799Z,84.17
2016-01-15T21:09:27.801Z,84.08
2016-01-15T21:10:27.788Z,83.98
2016-01-15T21:11:27.666Z,84.17
2016-01-15T21:12:27.685Z,84.36
2016-01-15T21:13:27.594Z,83.8
2016-01-15T21:14:27.581Z,83.98
2016-01-15T21:15:27.600Z,84.17
2016-01-15T21:16:27.477Z,95.26
2016-01-15T21:17:27.527Z,99.99
2016-01-15T21:18:27.452Z,99.99
2016-01-15T21:19:27.421Z,99.99
2016-01-15T21:20:27.377Z,99.99
2016-01-15T21:21:27.347Z,99.99
2016-01-15T21:22:27.257Z,99.99
2016-01-15T21:23:27.260Z,99.99
2016-01-15T21:24:27.263Z,99.99
2016-01-15T21:25:27.219Z,99.99
2016-01-15T21:26:27.330Z,99.99
2016-01-15T21:27:27.161Z,99.99
2016-01-15T21:28:27.070Z,99.99
2016-01-15T21:29:27.073Z,99.99
2016-01-15T21:30:27.060Z,98.54
2016-01-15T21:31:26.937Z,96.88
2016-01-15T21:32:26.924Z,95.36
2016-01-15T21:33:26.928Z,95.17
2016-01-15T21:34:26.837Z,94.42
2016-01-15T21:35:26.840Z,94.08
2016-01-15T21:36:26.827Z,93.23
2016-01-15T21:37:26.782Z,92.76
2016-01-15T21:38:26.738Z,92.57
2016-01-15T21:39:26.694Z,92.57
2016-01-15T21:40:26.682Z,92.76
2016-01-15T21:41:26.590Z,93.13
2016-01-15T21:42:26.593Z,93.46
2016-01-15T21:43:26.565Z,92.8
2016-01-15T21:44:26.504Z,93.37
2016-01-15T21:45:26.461Z,92.99
2016-01-15T21:46:26.463Z,93.08
2016-01-15T21:47:26.418Z,92.99
2016-01-15T21:48:26.343Z,93.37
2016-01-15T21:49:26.378Z,93.65
2016-01-15T21:50:26.364Z,93.46
2016-01-15T21:51:26.274Z,93.37
2016-01-15T21:52:26.261Z,98.96
2016-01-15T21:53:26.248Z,99.99
2016-01-15T21:54:26.158Z,97.64
2016-01-15T21:55:26.113Z,95.65
2016-01-15T21:56:26.085Z,94.7
2016-01-15T21:57:26.056Z,94.51
2016-01-15T21:58:25.993Z,93.94
2016-01-15T21:59:25.982Z,94.13
2016-01-15T22:00:25.937Z,93.56
2016-01-15T22:01:25.955Z,93.08
2016-01-15T22:02:25.849Z,93.23
2016-01-15T22:03:25.836Z,93.13
2016-01-15T22:04:25.823Z,93.13
2016-01-15T22:05:25.763Z,92.76
2016-01-15T22:06:25.766Z,92.66
2016-01-15T22:07:25.690Z,93.04
2016-01-15T22:08:25.678Z,93.42
2016-01-15T22:09:25.634Z,94.08
2016-01-15T22:10:25.590Z,93.8
2016-01-15T22:11:25.529Z,94.84
2016-01-15T22:12:25.547Z,98.82
2016-01-15T22:13:25.473Z,99.99
2016-01-15T22:14:25.507Z,99.99
2016-01-15T22:15:25.448Z,99.99
2016-01-15T22:16:25.387Z,99.99
2016-01-15T22:17:25.390Z,99.99
2016-01-15T22:18:25.409Z,99.99
2016-01-15T22:19:25.239Z,99.99
2016-01-15T22:20:25.211Z,99.99
2016-01-15T22:21:25.182Z,99.99
2016-01-15T22:22:25.154Z,99.99
2016-01-15T22:23:25.126Z,99.99
2016-01-15T22:24:25.159Z,99.99
2016-01-15T22:25:25.036Z,99.99
2016-01-15T22:26:25.070Z,99.99
2016-01-15T22:27:24.995Z,99.99
2016-01-15T22:28:24.904Z,99.99
2016-01-15T22:29:24.953Z,99.99
2016-01-15T22:30:24.894Z,99.99
2016-01-15T22:31:24.851Z,99.99
2016-01-15T22:32:24.791Z,99.99
2016-01-15T22:33:24.809Z,99.99
2016-01-15T22:34:24.703Z,99.99
2016-01-15T22:35:24.736Z,99.99
2016-01-15T22:36:24.661Z,99.99
2016-01-15T22:37:24.648Z,99.99
2016-01-15T22:38:24.586Z,99.99
2016-01-15T22:39:24.573Z,99.99
2016-01-15T22:40:24.529Z,99.99
2016-01-15T22:41:24.484Z,99.99
2016-01-15T22:42:24.425Z,99.99
2016-01-15T22:43:24.428Z,99.99
2016-01-15T22:44:24.461Z,99.99
2016-01-15T22:45:24.323Z,99.99
2016-01-15T22:46:24.342Z,99.99
2016-01-15T22:47:24.298Z,99.99
2016-01-15T22:48:24.239Z,99.99
2016-01-15T22:49:24.320Z,99.99
2016-01-15T22:50:24.182Z,99.99
2016-01-15T22:51:24.200Z,99.92
2016-01-15T22:52:24.125Z,99.99
2016-01-15T22:53:24.033Z,99.35
2016-01-15T22:54:24.177Z,98.83
2016-01-15T22:55:24.039Z,98.79
2016-01-15T22:56:24.042Z,98.45
2016-01-15T22:57:23.951Z,97.97
2016-01-15T22:58:23.938Z,97.88
2016-01-15T22:59:23.972Z,98.45
2016-01-15T23:00:23.945Z,98.26
2016-01-15T23:01:23.853Z,98.36
2016-01-15T23:02:23.779Z,98.45
2016-01-15T23:03:23.796Z,98.07
2016-01-15T23:04:23.749Z,97.5
2016-01-15T23:05:23.673Z,97.5
2016-01-15T23:06:23.675Z,96.65
2016-01-15T23:07:23.644Z,96.26
2016-01-15T23:08:23.553Z,95.12
2016-01-15T23:09:23.619Z,94.74
2016-01-15T23:10:23.638Z,93.84
2016-01-15T23:11:23.483Z,93.18
2016-01-15T23:12:23.485Z,92.22
2016-01-15T23:13:23.427Z,91.56
2016-01-15T23:14:23.366Z,90.7
2016-01-15T23:15:23.463Z,89.47
2016-01-15T23:16:23.357Z,88.9
2016-01-15T23:17:23.296Z,88.61
2016-01-15T23:18:23.285Z,87.28
2016-01-15T23:19:23.241Z,86.9
2016-01-15T23:20:23.180Z,86.43
2016-01-15T23:21:23.199Z,85.76
2016-01-15T23:22:23.155Z,85.28
2016-01-15T23:23:23.157Z,84.52
2016-01-15T23:24:23.097Z,84.33
2016-01-15T23:25:23.100Z,83.86
2016-01-15T23:26:23.010Z,83.1
2016-01-15T23:27:22.949Z,82.62
2016-01-15T23:28:22.937Z,82.34
2016-01-15T23:29:22.846Z,82.24
2016-01-15T23:30:22.832Z,81.77
2016-01-15T23:31:22.866Z,81.52
2016-01-15T23:32:22.823Z,81.38
2016-01-15T23:33:22.779Z,80.95
2016-01-15T23:34:22.734Z,80.63
2016-01-15T23:35:22.752Z,80.38
2016-01-15T23:36:22.693Z,79.96
2016-01-15T23:37:22.665Z,79.77
2016-01-15T23:38:22.573Z,79.58
2016-01-15T23:39:22.608Z,79.11
2016-01-15T23:40:22.548Z,78.72
2016-01-15T23:41:22.535Z,78.53
2016-01-15T23:42:22.522Z,78.53
2016-01-15T23:43:22.431Z,78.38
2016-01-15T23:44:22.371Z,78.16
2016-01-15T23:45:22.373Z,77.58
2016-01-15T23:46:22.376Z,77.39
2016-01-15T23:47:22.282Z,77.49
2016-01-15T23:48:22.317Z,77.34
2016-01-15T23:49:22.304Z,77.11
2016-01-15T23:50:22.212Z,76.82
2016-01-15T23:51:22.153Z,77.05
2016-01-15T23:52:22.171Z,76.73
2016-01-15T23:53:22.128Z,76.63
2016-01-15T23:54:22.068Z,76.25
2016-01-15T23:55:22.087Z,76.35
2016-01-15T23:56:22.026Z,76.35
2016-01-15T23:57:22.171Z,76.35
2016-01-15T23:58:21.955Z,75.68
2016-01-15T23:59:23.801Z,76.16
